sensor_id;sensor_type;location;lat;lon;timestamp;temperature;humidity
57282;DHT22;43129;52.628;10.098;2023-05-23T00:01:03;16.60;99.90
57282;DHT22;43129;52.628;10.098;2023-05-23T00:03:34;16.60;99.90
57282;DHT22;43129;52.628;10.098;2023-05-23T00:06:05;16.60;99.90
57282;DHT22;43129;52.628;10.098;2023-05-23T00:08:31;16.60;99.90
57282;DHT22;43129;52.628;10.098;2023-05-23T00:10:59;16.60;99.90
57282;DHT22;43129;52.628;10.098;2023-05-23T00:13:25;16.60;99.90
57282;DHT22;43129;52.628;10.098;2023-05-23T00:15:51;16.60;99.90
57282;DHT22;43129;52.628;10.098;2023-05-23T00:18:21;16.60;99.90
57282;DHT22;43129;52.628;10.098;2023-05-23T00:20:50;16.50;99.90
57282;DHT22;43129;52.628;10.098;2023-05-23T00:23:19;16.50;99.90
57282;DHT22;43129;52.628;10.098;2023-05-23T00:25:45;16.40;99.90
57282;DHT22;43129;52.628;10.098;2023-05-23T00:28:19;16.30;99.90
57282;DHT22;43129;52.628;10.098;2023-05-23T00:30:45;16.30;99.90
57282;DHT22;43129;52.628;10.098;2023-05-23T00:33:13;16.30;99.90
57282;DHT22;43129;52.628;10.098;2023-05-23T00:35:40;16.30;99.90
57282;DHT22;43129;52.628;10.098;2023-05-23T00:38:08;16.30;99.90
57282;DHT22;43129;52.628;10.098;2023-05-23T00:40:36;16.30;99.90
57282;DHT22;43129;52.628;10.098;2023-05-23T00:43:02;16.20;99.90
57282;DHT22;43129;52.628;10.098;2023-05-23T00:45:30;16.30;99.90
57282;DHT22;43129;52.628;10.098;2023-05-23T00:47:56;16.20;99.90
57282;DHT22;43129;52.628;10.098;2023-05-23T00:50:23;16.20;99.90
57282;DHT22;43129;52.628;10.098;2023-05-23T00:52:52;16.30;99.90
57282;DHT22;43129;52.628;10.098;2023-05-23T00:55:18;16.30;99.90
57282;DHT22;43129;52.628;10.098;2023-05-23T00:57:46;16.20;99.90
57282;DHT22;43129;52.628;10.098;2023-05-23T01:00:13;16.20;99.90
57282;DHT22;43129;52.628;10.098;2023-05-23T01:02:43;16.20;99.90
57282;DHT22;43129;52.628;10.098;2023-05-23T01:05:11;16.10;99.90
57282;DHT22;43129;52.628;10.098;2023-05-23T01:07:39;16.10;99.90
57282;DHT22;43129;52.628;10.098;2023-05-23T01:10:06;16.00;99.90
57282;DHT22;43129;52.628;10.098;2023-05-23T01:13:01;16.00;99.90
57282;DHT22;43129;52.628;10.098;2023-05-23T01:16:52;16.00;99.90
57282;DHT22;43129;52.628;10.098;2023-05-23T01:21:40;16.20;99.90
57282;DHT22;43129;52.628;10.098;2023-05-23T01:30:07;16.30;99.90
57282;DHT22;43129;52.628;10.098;2023-05-23T01:32:34;16.30;99.90
57282;DHT22;43129;52.628;10.098;2023-05-23T01:35:04;16.20;99.90
57282;DHT22;43129;52.628;10.098;2023-05-23T01:37:30;16.20;99.90
57282;DHT22;43129;52.628;10.098;2023-05-23T01:39:58;16.20;99.90
57282;DHT22;43129;52.628;10.098;2023-05-23T01:42:24;16.20;99.90
57282;DHT22;43129;52.628;10.098;2023-05-23T01:44:52;16.20;99.90
57282;DHT22;43129;52.628;10.098;2023-05-23T01:47:26;16.20;99.90
57282;DHT22;43129;52.628;10.098;2023-05-23T01:49:52;16.10;99.90
57282;DHT22;43129;52.628;10.098;2023-05-23T01:52:22;16.10;99.90
57282;DHT22;43129;52.628;10.098;2023-05-23T01:54:54;16.00;99.90
57282;DHT22;43129;52.628;10.098;2023-05-23T01:57:20;16.00;99.90
57282;DHT22;43129;52.628;10.098;2023-05-23T01:59:46;16.00;99.90
57282;DHT22;43129;52.628;10.098;2023-05-23T02:02:12;16.00;99.90
57282;DHT22;43129;52.628;10.098;2023-05-23T02:04:37;16.00;99.90
57282;DHT22;43129;52.628;10.098;2023-05-23T02:07:03;16.00;99.90
57282;DHT22;43129;52.628;10.098;2023-05-23T02:09:29;16.00;99.90
57282;DHT22;43129;52.628;10.098;2023-05-23T02:11:54;16.00;99.90
57282;DHT22;43129;52.628;10.098;2023-05-23T02:14:22;16.10;99.90
57282;DHT22;43129;52.628;10.098;2023-05-23T02:16:50;16.10;99.90
57282;DHT22;43129;52.628;10.098;2023-05-23T02:19:19;16.00;99.90
57282;DHT22;43129;52.628;10.098;2023-05-23T02:21:44;15.90;99.90
57282;DHT22;43129;52.628;10.098;2023-05-23T02:24:15;15.90;99.90
57282;DHT22;43129;52.628;10.098;2023-05-23T02:26:43;15.70;99.90
57282;DHT22;43129;52.628;10.098;2023-05-23T02:29:08;15.70;99.90
57282;DHT22;43129;52.628;10.098;2023-05-23T02:31:34;15.70;99.90
57282;DHT22;43129;52.628;10.098;2023-05-23T02:34:03;15.60;99.90
57282;DHT22;43129;52.628;10.098;2023-05-23T02:36:33;15.60;99.90
57282;DHT22;43129;52.628;10.098;2023-05-23T02:39:05;15.50;99.90
57282;DHT22;43129;52.628;10.098;2023-05-23T02:41:31;15.50;99.90
57282;DHT22;43129;52.628;10.098;2023-05-23T02:43:59;15.40;99.90
57282;DHT22;43129;52.628;10.098;2023-05-23T02:46:25;15.30;99.90
57282;DHT22;43129;52.628;10.098;2023-05-23T02:48:50;15.20;99.90
57282;DHT22;43129;52.628;10.098;2023-05-23T02:51:18;15.20;99.90
57282;DHT22;43129;52.628;10.098;2023-05-23T02:53:44;15.20;99.90
57282;DHT22;43129;52.628;10.098;2023-05-23T02:56:12;15.10;99.90
57282;DHT22;43129;52.628;10.098;2023-05-23T02:58:40;15.10;99.90
57282;DHT22;43129;52.628;10.098;2023-05-23T03:01:09;15.10;99.90
57282;DHT22;43129;52.628;10.098;2023-05-23T03:03:34;15.00;99.90
57282;DHT22;43129;52.628;10.098;2023-05-23T03:06:05;15.10;99.90
57282;DHT22;43129;52.628;10.098;2023-05-23T03:08:31;15.00;99.90
57282;DHT22;43129;52.628;10.098;2023-05-23T03:10:56;15.00;99.90
57282;DHT22;43129;52.628;10.098;2023-05-23T03:13:22;15.00;99.90
57282;DHT22;43129;52.628;10.098;2023-05-23T03:15:50;15.00;99.90
57282;DHT22;43129;52.628;10.098;2023-05-23T03:18:16;15.00;99.90
57282;DHT22;43129;52.628;10.098;2023-05-23T03:20:41;15.00;99.90
57282;DHT22;43129;52.628;10.098;2023-05-23T03:23:07;15.00;99.90
57282;DHT22;43129;52.628;10.098;2023-05-23T03:25:32;15.00;99.90
57282;DHT22;43129;52.628;10.098;2023-05-23T03:28:01;15.00;99.90
57282;DHT22;43129;52.628;10.098;2023-05-23T03:30:26;15.00;99.90
57282;DHT22;43129;52.628;10.098;2023-05-23T03:32:52;15.00;99.90
57282;DHT22;43129;52.628;10.098;2023-05-23T03:35:18;14.90;99.90
57282;DHT22;43129;52.628;10.098;2023-05-23T03:37:46;15.00;99.90
57282;DHT22;43129;52.628;10.098;2023-05-23T03:40:11;15.10;99.90
57282;DHT22;43129;52.628;10.098;2023-05-23T03:42:38;15.10;99.90
57282;DHT22;43129;52.628;10.098;2023-05-23T03:45:06;15.20;99.90
57282;DHT22;43129;52.628;10.098;2023-05-23T03:47:32;15.30;99.90
57282;DHT22;43129;52.628;10.098;2023-05-23T03:49:58;15.30;99.90
57282;DHT22;43129;52.628;10.098;2023-05-23T03:52:23;15.30;99.90
57282;DHT22;43129;52.628;10.098;2023-05-23T03:54:51;15.20;99.90
57282;DHT22;43129;52.628;10.098;2023-05-23T03:57:17;15.20;99.90
57282;DHT22;43129;52.628;10.098;2023-05-23T03:59:45;15.10;99.90
57282;DHT22;43129;52.628;10.098;2023-05-23T04:02:12;15.00;99.90
57282;DHT22;43129;52.628;10.098;2023-05-23T04:04:38;14.90;99.90
57282;DHT22;43129;52.628;10.098;2023-05-23T04:07:04;14.90;99.90
57282;DHT22;43129;52.628;10.098;2023-05-23T04:09:30;14.90;99.90
57282;DHT22;43129;52.628;10.098;2023-05-23T04:11:57;14.80;99.90
57282;DHT22;43129;52.628;10.098;2023-05-23T04:14:22;14.80;99.90
57282;DHT22;43129;52.628;10.098;2023-05-23T04:16:54;14.90;99.90
57282;DHT22;43129;52.628;10.098;2023-05-23T04:19:20;14.90;99.90
57282;DHT22;43129;52.628;10.098;2023-05-23T04:21:45;14.90;99.90
57282;DHT22;43129;52.628;10.098;2023-05-23T04:24:11;14.80;99.90
57282;DHT22;43129;52.628;10.098;2023-05-23T04:26:36;14.90;99.90
57282;DHT22;43129;52.628;10.098;2023-05-23T04:29:03;14.80;99.90
57282;DHT22;43129;52.628;10.098;2023-05-23T04:31:30;14.90;99.90
57282;DHT22;43129;52.628;10.098;2023-05-23T04:33:55;14.80;99.90
57282;DHT22;43129;52.628;10.098;2023-05-23T04:36:23;14.80;99.90
57282;DHT22;43129;52.628;10.098;2023-05-23T04:38:52;14.80;99.90
57282;DHT22;43129;52.628;10.098;2023-05-23T04:41:18;14.90;99.90
57282;DHT22;43129;52.628;10.098;2023-05-23T04:43:49;14.80;99.90
57282;DHT22;43129;52.628;10.098;2023-05-23T04:46:18;14.80;99.90
57282;DHT22;43129;52.628;10.098;2023-05-23T04:48:50;14.70;99.90
57282;DHT22;43129;52.628;10.098;2023-05-23T04:51:23;14.70;99.90
57282;DHT22;43129;52.628;10.098;2023-05-23T04:53:50;14.60;99.90
57282;DHT22;43129;52.628;10.098;2023-05-23T04:56:16;14.70;99.90
57282;DHT22;43129;52.628;10.098;2023-05-23T04:58:46;14.60;99.90
57282;DHT22;43129;52.628;10.098;2023-05-23T05:01:16;14.70;99.90
57282;DHT22;43129;52.628;10.098;2023-05-23T05:03:41;14.80;99.90
57282;DHT22;43129;52.628;10.098;2023-05-23T05:06:09;14.80;99.90
57282;DHT22;43129;52.628;10.098;2023-05-23T05:08:35;14.80;99.90
57282;DHT22;43129;52.628;10.098;2023-05-23T05:11:03;14.80;99.90
57282;DHT22;43129;52.628;10.098;2023-05-23T05:13:31;14.80;99.90
57282;DHT22;43129;52.628;10.098;2023-05-23T05:16:02;14.80;99.90
57282;DHT22;43129;52.628;10.098;2023-05-23T05:18:29;14.70;99.90
57282;DHT22;43129;52.628;10.098;2023-05-23T05:20:55;14.70;99.90
57282;DHT22;43129;52.628;10.098;2023-05-23T05:23:26;14.70;99.90
57282;DHT22;43129;52.628;10.098;2023-05-23T05:25:56;14.60;99.90
57282;DHT22;43129;52.628;10.098;2023-05-23T05:28:22;14.60;99.90
57282;DHT22;43129;52.628;10.098;2023-05-23T05:30:49;14.60;99.90
57282;DHT22;43129;52.628;10.098;2023-05-23T05:33:19;14.60;99.90
57282;DHT22;43129;52.628;10.098;2023-05-23T05:35:47;14.60;99.90
57282;DHT22;43129;52.628;10.098;2023-05-23T05:38:13;14.60;99.90
57282;DHT22;43129;52.628;10.098;2023-05-23T05:40:43;14.60;99.90
57282;DHT22;43129;52.628;10.098;2023-05-23T05:43:11;14.60;99.90
57282;DHT22;43129;52.628;10.098;2023-05-23T05:45:40;14.60;99.90
57282;DHT22;43129;52.628;10.098;2023-05-23T05:48:07;14.60;99.90
57282;DHT22;43129;52.628;10.098;2023-05-23T05:50:38;14.60;99.90
57282;DHT22;43129;52.628;10.098;2023-05-23T05:53:04;14.60;99.90
57282;DHT22;43129;52.628;10.098;2023-05-23T05:55:29;14.60;99.90
57282;DHT22;43129;52.628;10.098;2023-05-23T05:57:57;14.60;99.90
57282;DHT22;43129;52.628;10.098;2023-05-23T06:00:25;14.60;99.90
57282;DHT22;43129;52.628;10.098;2023-05-23T06:02:53;14.60;99.90
57282;DHT22;43129;52.628;10.098;2023-05-23T06:05:22;14.50;99.90
57282;DHT22;43129;52.628;10.098;2023-05-23T06:07:48;14.40;99.90
57282;DHT22;43129;52.628;10.098;2023-05-23T06:10:14;14.40;99.90
57282;DHT22;43129;52.628;10.098;2023-05-23T06:12:40;14.50;99.90
57282;DHT22;43129;52.628;10.098;2023-05-23T06:15:07;14.50;99.90
57282;DHT22;43129;52.628;10.098;2023-05-23T06:17:37;14.60;99.90
57282;DHT22;43129;52.628;10.098;2023-05-23T06:20:06;14.60;99.90
57282;DHT22;43129;52.628;10.098;2023-05-23T06:22:34;14.80;99.90
57282;DHT22;43129;52.628;10.098;2023-05-23T06:25:00;14.80;99.90
57282;DHT22;43129;52.628;10.098;2023-05-23T06:27:25;15.00;99.90
57282;DHT22;43129;52.628;10.098;2023-05-23T06:29:51;15.10;99.90
57282;DHT22;43129;52.628;10.098;2023-05-23T06:32:17;15.10;99.90
57282;DHT22;43129;52.628;10.098;2023-05-23T06:34:42;15.10;99.90
57282;DHT22;43129;52.628;10.098;2023-05-23T06:37:10;15.00;99.90
57282;DHT22;43129;52.628;10.098;2023-05-23T06:39:38;15.10;99.90
57282;DHT22;43129;52.628;10.098;2023-05-23T06:42:04;15.10;99.90
57282;DHT22;43129;52.628;10.098;2023-05-23T06:44:32;15.20;99.90
57282;DHT22;43129;52.628;10.098;2023-05-23T06:46:58;15.20;99.90
57282;DHT22;43129;52.628;10.098;2023-05-23T06:49:24;15.10;99.90
57282;DHT22;43129;52.628;10.098;2023-05-23T06:51:50;15.10;99.90
57282;DHT22;43129;52.628;10.098;2023-05-23T06:54:18;14.90;99.90
57282;DHT22;43129;52.628;10.098;2023-05-23T06:56:49;14.90;99.90
57282;DHT22;43129;52.628;10.098;2023-05-23T06:59:19;14.90;99.90
57282;DHT22;43129;52.628;10.098;2023-05-23T07:01:47;15.00;99.90
57282;DHT22;43129;52.628;10.098;2023-05-23T07:04:12;15.00;99.90
57282;DHT22;43129;52.628;10.098;2023-05-23T07:06:41;14.90;99.90
57282;DHT22;43129;52.628;10.098;2023-05-23T07:09:08;14.80;99.90
57282;DHT22;43129;52.628;10.098;2023-05-23T07:11:36;14.80;99.90
57282;DHT22;43129;52.628;10.098;2023-05-23T07:14:05;14.80;99.90
57282;DHT22;43129;52.628;10.098;2023-05-23T07:16:32;14.70;99.90
57282;DHT22;43129;52.628;10.098;2023-05-23T07:18:57;14.60;99.90
57282;DHT22;43129;52.628;10.098;2023-05-23T07:21:28;14.50;99.90
57282;DHT22;43129;52.628;10.098;2023-05-23T07:23:53;14.50;99.90
57282;DHT22;43129;52.628;10.098;2023-05-23T07:26:19;14.50;99.90
57282;DHT22;43129;52.628;10.098;2023-05-23T07:28:49;14.40;99.90
57282;DHT22;43129;52.628;10.098;2023-05-23T07:31:18;14.40;99.90
57282;DHT22;43129;52.628;10.098;2023-05-23T07:33:46;14.40;99.90
57282;DHT22;43129;52.628;10.098;2023-05-23T07:36:16;14.40;99.90
57282;DHT22;43129;52.628;10.098;2023-05-23T07:38:42;14.40;99.90
57282;DHT22;43129;52.628;10.098;2023-05-23T07:41:10;14.40;99.90
57282;DHT22;43129;52.628;10.098;2023-05-23T07:43:38;14.40;99.90
57282;DHT22;43129;52.628;10.098;2023-05-23T07:46:06;14.30;99.90
57282;DHT22;43129;52.628;10.098;2023-05-23T07:48:37;14.40;99.90
57282;DHT22;43129;52.628;10.098;2023-05-23T07:51:03;14.40;99.90
57282;DHT22;43129;52.628;10.098;2023-05-23T07:53:28;14.40;99.90
57282;DHT22;43129;52.628;10.098;2023-05-23T07:55:54;14.30;99.90
57282;DHT22;43129;52.628;10.098;2023-05-23T07:58:23;14.30;99.90
57282;DHT22;43129;52.628;10.098;2023-05-23T08:00:51;14.40;99.90
57282;DHT22;43129;52.628;10.098;2023-05-23T08:03:16;14.30;99.90
57282;DHT22;43129;52.628;10.098;2023-05-23T08:05:44;14.30;99.90
57282;DHT22;43129;52.628;10.098;2023-05-23T08:08:14;14.30;99.90
57282;DHT22;43129;52.628;10.098;2023-05-23T08:10:40;14.30;99.90
57282;DHT22;43129;52.628;10.098;2023-05-23T08:13:10;14.30;99.90
57282;DHT22;43129;52.628;10.098;2023-05-23T08:15:38;14.30;99.90
57282;DHT22;43129;52.628;10.098;2023-05-23T08:18:04;14.30;99.90
57282;DHT22;43129;52.628;10.098;2023-05-23T08:20:32;14.30;99.90
57282;DHT22;43129;52.628;10.098;2023-05-23T08:22:58;14.40;99.90
57282;DHT22;43129;52.628;10.098;2023-05-23T08:25:25;14.40;99.90
57282;DHT22;43129;52.628;10.098;2023-05-23T08:27:55;14.30;99.90
57282;DHT22;43129;52.628;10.098;2023-05-23T08:30:24;14.30;99.90
57282;DHT22;43129;52.628;10.098;2023-05-23T08:32:51;14.30;99.90
57282;DHT22;43129;52.628;10.098;2023-05-23T08:35:17;14.20;99.90
57282;DHT22;43129;52.628;10.098;2023-05-23T08:37:46;14.30;99.90
57282;DHT22;43129;52.628;10.098;2023-05-23T08:40:21;14.30;99.90
57282;DHT22;43129;52.628;10.098;2023-05-23T08:42:47;14.30;99.90
57282;DHT22;43129;52.628;10.098;2023-05-23T08:45:16;14.30;99.90
57282;DHT22;43129;52.628;10.098;2023-05-23T08:47:46;14.20;99.90
57282;DHT22;43129;52.628;10.098;2023-05-23T08:50:15;14.10;99.90
57282;DHT22;43129;52.628;10.098;2023-05-23T08:52:57;14.10;99.90
57282;DHT22;43129;52.628;10.098;2023-05-23T08:55:29;14.20;99.90
57282;DHT22;43129;52.628;10.098;2023-05-23T08:57:57;14.20;99.90
57282;DHT22;43129;52.628;10.098;2023-05-23T09:00:26;14.20;99.90
57282;DHT22;43129;52.628;10.098;2023-05-23T09:02:56;14.10;99.90
57282;DHT22;43129;52.628;10.098;2023-05-23T09:05:25;14.00;99.90
57282;DHT22;43129;52.628;10.098;2023-05-23T09:07:53;14.00;99.90
57282;DHT22;43129;52.628;10.098;2023-05-23T09:10:19;13.90;99.90
57282;DHT22;43129;52.628;10.098;2023-05-23T09:12:45;14.00;99.90
57282;DHT22;43129;52.628;10.098;2023-05-23T09:15:11;14.10;99.90
57282;DHT22;43129;52.628;10.098;2023-05-23T09:17:38;14.10;99.90
57282;DHT22;43129;52.628;10.098;2023-05-23T09:20:13;14.20;99.90
57282;DHT22;43129;52.628;10.098;2023-05-23T09:22:42;14.20;99.90
57282;DHT22;43129;52.628;10.098;2023-05-23T09:25:12;14.10;99.90
57282;DHT22;43129;52.628;10.098;2023-05-23T09:27:41;14.10;99.90
57282;DHT22;43129;52.628;10.098;2023-05-23T09:30:08;14.10;99.90
57282;DHT22;43129;52.628;10.098;2023-05-23T09:32:35;14.00;99.90
57282;DHT22;43129;52.628;10.098;2023-05-23T09:35:07;13.90;99.90
57282;DHT22;43129;52.628;10.098;2023-05-23T09:37:38;13.90;99.90
57282;DHT22;43129;52.628;10.098;2023-05-23T09:40:11;13.90;99.90
57282;DHT22;43129;52.628;10.098;2023-05-23T09:42:47;14.00;99.90
57282;DHT22;43129;52.628;10.098;2023-05-23T09:45:14;14.10;99.90
57282;DHT22;43129;52.628;10.098;2023-05-23T09:47:50;14.00;99.90
57282;DHT22;43129;52.628;10.098;2023-05-23T09:50:16;14.10;99.90
57282;DHT22;43129;52.628;10.098;2023-05-23T09:52:44;14.00;99.90
57282;DHT22;43129;52.628;10.098;2023-05-23T09:55:11;14.10;99.90
57282;DHT22;43129;52.628;10.098;2023-05-23T09:57:42;14.10;99.90
57282;DHT22;43129;52.628;10.098;2023-05-23T10:00:11;14.10;99.90
57282;DHT22;43129;52.628;10.098;2023-05-23T10:03:11;14.00;99.90
57282;DHT22;43129;52.628;10.098;2023-05-23T10:05:46;13.80;99.90
57282;DHT22;43129;52.628;10.098;2023-05-23T10:08:24;13.90;99.90
57282;DHT22;43129;52.628;10.098;2023-05-23T10:13:25;13.60;99.90
57282;DHT22;43129;52.628;10.098;2023-05-23T10:16:06;13.60;99.90
57282;DHT22;43129;52.628;10.098;2023-05-23T10:18:38;13.70;99.90
57282;DHT22;43129;52.628;10.098;2023-05-23T10:21:19;13.70;99.90
57282;DHT22;43129;52.628;10.098;2023-05-23T10:23:51;13.60;99.90
57282;DHT22;43129;52.628;10.098;2023-05-23T10:26:20;13.60;99.90
57282;DHT22;43129;52.628;10.098;2023-05-23T10:28:47;13.70;99.90
57282;DHT22;43129;52.628;10.098;2023-05-23T10:31:14;13.60;99.90
57282;DHT22;43129;52.628;10.098;2023-05-23T10:33:42;13.70;99.90
57282;DHT22;43129;52.628;10.098;2023-05-23T10:36:32;13.70;99.90
57282;DHT22;43129;52.628;10.098;2023-05-23T10:39:14;13.80;99.90
57282;DHT22;43129;52.628;10.098;2023-05-23T10:41:46;13.80;99.90
57282;DHT22;43129;52.628;10.098;2023-05-23T10:44:28;13.80;99.70
57282;DHT22;43129;52.628;10.098;2023-05-23T10:46:57;13.70;99.90
57282;DHT22;43129;52.628;10.098;2023-05-23T10:52:09;13.70;99.70
57282;DHT22;43129;52.628;10.098;2023-05-23T10:54:44;13.80;99.60
57282;DHT22;43129;52.628;10.098;2023-05-23T10:57:14;13.90;99.40
57282;DHT22;43129;52.628;10.098;2023-05-23T10:59:41;13.90;99.60
57282;DHT22;43129;52.628;10.098;2023-05-23T11:02:14;13.80;99.80
57282;DHT22;43129;52.628;10.098;2023-05-23T11:04:42;13.80;99.60
57282;DHT22;43129;52.628;10.098;2023-05-23T11:07:27;13.60;99.50
57282;DHT22;43129;52.628;10.098;2023-05-23T11:10:25;13.60;99.40
57282;DHT22;43129;52.628;10.098;2023-05-23T11:13:05;13.40;99.30
57282;DHT22;43129;52.628;10.098;2023-05-23T11:15:41;13.50;99.60
57282;DHT22;43129;52.628;10.098;2023-05-23T11:18:09;13.50;99.50
57282;DHT22;43129;52.628;10.098;2023-05-23T11:20:40;13.40;98.90
57282;DHT22;43129;52.628;10.098;2023-05-23T11:23:14;13.50;99.50
57282;DHT22;43129;52.628;10.098;2023-05-23T11:25:41;13.40;99.20
57282;DHT22;43129;52.628;10.098;2023-05-23T11:28:13;13.40;99.20
57282;DHT22;43129;52.628;10.098;2023-05-23T11:30:41;13.50;99.00
57282;DHT22;43129;52.628;10.098;2023-05-23T11:33:11;13.50;98.80
57282;DHT22;43129;52.628;10.098;2023-05-23T11:35:41;13.40;98.30
57282;DHT22;43129;52.628;10.098;2023-05-23T11:38:10;13.40;97.80
57282;DHT22;43129;52.628;10.098;2023-05-23T11:40:40;13.50;97.90
57282;DHT22;43129;52.628;10.098;2023-05-23T11:43:13;13.60;96.40
57282;DHT22;43129;52.628;10.098;2023-05-23T11:45:40;13.50;96.60
57282;DHT22;43129;52.628;10.098;2023-05-23T11:50:46;13.50;97.60
57282;DHT22;43129;52.628;10.098;2023-05-23T11:53:13;13.60;96.90
57282;DHT22;43129;52.628;10.098;2023-05-23T11:55:56;13.70;97.00
57282;DHT22;43129;52.628;10.098;2023-05-23T11:58:30;13.90;95.70
57282;DHT22;43129;52.628;10.098;2023-05-23T12:01:02;14.00;95.20
57282;DHT22;43129;52.628;10.098;2023-05-23T12:03:29;14.20;93.70
57282;DHT22;43129;52.628;10.098;2023-05-23T12:05:55;14.40;93.10
57282;DHT22;43129;52.628;10.098;2023-05-23T12:08:23;14.40;92.90
57282;DHT22;43129;52.628;10.098;2023-05-23T12:10:57;14.40;92.50
57282;DHT22;43129;52.628;10.098;2023-05-23T12:13:29;14.10;92.30
57282;DHT22;43129;52.628;10.098;2023-05-23T12:15:59;13.90;92.40
57282;DHT22;43129;52.628;10.098;2023-05-23T12:18:28;13.80;93.00
57282;DHT22;43129;52.628;10.098;2023-05-23T12:21:01;13.50;94.10
57282;DHT22;43129;52.628;10.098;2023-05-23T12:23:30;13.70;93.50
57282;DHT22;43129;52.628;10.098;2023-05-23T12:25:56;14.00;92.20
57282;DHT22;43129;52.628;10.098;2023-05-23T12:28:43;13.90;91.50
57282;DHT22;43129;52.628;10.098;2023-05-23T12:31:16;14.30;91.20
57282;DHT22;43129;52.628;10.098;2023-05-23T12:33:46;14.80;87.50
57282;DHT22;43129;52.628;10.098;2023-05-23T12:36:23;14.70;82.20
57282;DHT22;43129;52.628;10.098;2023-05-23T12:38:51;14.70;84.20
57282;DHT22;43129;52.628;10.098;2023-05-23T12:41:18;14.90;82.60
57282;DHT22;43129;52.628;10.098;2023-05-23T12:43:55;15.00;80.20
57282;DHT22;43129;52.628;10.098;2023-05-23T12:46:24;15.40;79.20
57282;DHT22;43129;52.628;10.098;2023-05-23T12:48:51;15.30;75.30
57282;DHT22;43129;52.628;10.098;2023-05-23T12:51:19;15.60;76.00
57282;DHT22;43129;52.628;10.098;2023-05-23T12:53:46;15.80;73.10
57282;DHT22;43129;52.628;10.098;2023-05-23T12:56:11;15.60;71.90
57282;DHT22;43129;52.628;10.098;2023-05-23T12:58:37;15.90;72.70
57282;DHT22;43129;52.628;10.098;2023-05-23T13:01:03;16.30;70.30
57282;DHT22;43129;52.628;10.098;2023-05-23T13:03:29;16.20;69.30
57282;DHT22;43129;52.628;10.098;2023-05-23T13:05:58;16.10;68.80
57282;DHT22;43129;52.628;10.098;2023-05-23T13:08:26;15.70;70.80
57282;DHT22;43129;52.628;10.098;2023-05-23T13:10:57;16.00;71.20
57282;DHT22;43129;52.628;10.098;2023-05-23T13:13:23;16.00;71.00
57282;DHT22;43129;52.628;10.098;2023-05-23T13:15:49;16.20;69.60
57282;DHT22;43129;52.628;10.098;2023-05-23T13:18:15;16.90;67.10
57282;DHT22;43129;52.628;10.098;2023-05-23T13:20:41;18.20;61.90
57282;DHT22;43129;52.628;10.098;2023-05-23T13:23:07;18.80;57.70
57282;DHT22;43129;52.628;10.098;2023-05-23T13:25:35;18.90;57.20
57282;DHT22;43129;52.628;10.098;2023-05-23T13:28:01;19.00;57.00
57282;DHT22;43129;52.628;10.098;2023-05-23T13:30:27;18.50;57.00
57282;DHT22;43129;52.628;10.098;2023-05-23T13:32:55;18.60;57.70
57282;DHT22;43129;52.628;10.098;2023-05-23T13:35:21;18.70;57.60
57282;DHT22;43129;52.628;10.098;2023-05-23T13:37:49;18.60;58.10
57282;DHT22;43129;52.628;10.098;2023-05-23T13:40:22;19.00;57.70
57282;DHT22;43129;52.628;10.098;2023-05-23T13:42:50;18.80;55.90
57282;DHT22;43129;52.628;10.098;2023-05-23T13:45:17;18.90;55.20
57282;DHT22;43129;52.628;10.098;2023-05-23T13:47:43;18.60;53.60
57282;DHT22;43129;52.628;10.098;2023-05-23T13:50:12;18.40;54.40
57282;DHT22;43129;52.628;10.098;2023-05-23T13:52:40;18.80;53.30
57282;DHT22;43129;52.628;10.098;2023-05-23T13:55:11;19.00;52.50
57282;DHT22;43129;52.628;10.098;2023-05-23T13:57:36;19.10;52.50
57282;DHT22;43129;52.628;10.098;2023-05-23T14:00:02;19.40;52.00
57282;DHT22;43129;52.628;10.098;2023-05-23T14:02:28;19.30;51.80
57282;DHT22;43129;52.628;10.098;2023-05-23T14:04:56;19.40;51.70
57282;DHT22;43129;52.628;10.098;2023-05-23T14:07:23;18.40;52.80
57282;DHT22;43129;52.628;10.098;2023-05-23T14:09:48;18.50;54.60
57282;DHT22;43129;52.628;10.098;2023-05-23T14:12:14;18.40;52.20
57282;DHT22;43129;52.628;10.098;2023-05-23T14:14:42;18.50;52.20
57282;DHT22;43129;52.628;10.098;2023-05-23T14:17:15;18.70;51.30
57282;DHT22;43129;52.628;10.098;2023-05-23T14:19:44;18.60;51.40
57282;DHT22;43129;52.628;10.098;2023-05-23T14:22:10;18.90;50.80
57282;DHT22;43129;52.628;10.098;2023-05-23T14:24:35;19.40;50.10
57282;DHT22;43129;52.628;10.098;2023-05-23T14:27:01;19.70;49.40
57282;DHT22;43129;52.628;10.098;2023-05-23T14:29:28;19.70;47.90
57282;DHT22;43129;52.628;10.098;2023-05-23T14:31:53;20.10;47.40
57282;DHT22;43129;52.628;10.098;2023-05-23T14:34:21;20.30;47.00
57282;DHT22;43129;52.628;10.098;2023-05-23T14:36:49;19.60;47.80
57282;DHT22;43129;52.628;10.098;2023-05-23T14:39:15;19.50;49.60
57282;DHT22;43129;52.628;10.098;2023-05-23T14:41:41;19.50;49.90
57282;DHT22;43129;52.628;10.098;2023-05-23T14:44:06;19.00;50.30
57282;DHT22;43129;52.628;10.098;2023-05-23T14:46:34;19.10;50.50
57282;DHT22;43129;52.628;10.098;2023-05-23T14:49:00;19.10;49.30
57282;DHT22;43129;52.628;10.098;2023-05-23T14:51:30;19.20;49.60
57282;DHT22;43129;52.628;10.098;2023-05-23T14:53:56;18.80;50.60
57282;DHT22;43129;52.628;10.098;2023-05-23T14:56:22;19.20;50.40
57282;DHT22;43129;52.628;10.098;2023-05-23T14:58:53;20.00;48.90
57282;DHT22;43129;52.628;10.098;2023-05-23T15:01:22;19.90;47.30
57282;DHT22;43129;52.628;10.098;2023-05-23T15:03:48;21.20;45.50
57282;DHT22;43129;52.628;10.098;2023-05-23T15:06:16;21.20;44.10
57282;DHT22;43129;52.628;10.098;2023-05-23T15:08:41;20.90;44.60
57282;DHT22;43129;52.628;10.098;2023-05-23T15:11:07;20.80;45.20
57282;DHT22;43129;52.628;10.098;2023-05-23T15:13:37;20.90;44.80
57282;DHT22;43129;52.628;10.098;2023-05-23T15:16:03;20.10;45.50
57282;DHT22;43129;52.628;10.098;2023-05-23T15:18:31;19.30;47.20
57282;DHT22;43129;52.628;10.098;2023-05-23T15:20:57;18.70;48.80
57282;DHT22;43129;52.628;10.098;2023-05-23T15:23:23;18.50;50.00
57282;DHT22;43129;52.628;10.098;2023-05-23T15:25:48;18.60;50.90
57282;DHT22;43129;52.628;10.098;2023-05-23T15:28:19;19.30;47.30
57282;DHT22;43129;52.628;10.098;2023-05-23T15:30:47;20.10;44.40
57282;DHT22;43129;52.628;10.098;2023-05-23T15:33:17;20.30;44.10
57282;DHT22;43129;52.628;10.098;2023-05-23T15:35:43;20.20;44.00
57282;DHT22;43129;52.628;10.098;2023-05-23T15:38:08;20.30;44.20
57282;DHT22;43129;52.628;10.098;2023-05-23T15:40:34;20.90;43.10